Pottersville, Missouri
Current Conditions -  °F | °C
As of 7:53 AM on Friday 31 Oct 2014 (Local Time) from KUNO Reporting Station
Broken Clouds Broken Clouds  
Wind Chill: 41°   Ceiling: 1900
Heat Index: 47°   Visibility: 10mi
Dew Point: 40°   Wind: 14mph
Humidity: 77%   Direction: 350°N
Pressure: 30.2"   Gusts: 26mph
Location:  36.7°N, 92.03°W
Report Text: KUNO 311253Z AUTO 35012G23KT 10SM BKN019 08/04 A3020 RMK AO2 SLP228 T00830044
Loading
Personal Weather Stations






























Interactive Weather Map
Tropical Storm Tracking
New forecast layout! Learn more

10-Day Weather Forecast

Advertisements
Track Severe Weather on mobile